Rockford, North Carolina
Current Conditions -  °F | °C
As of 10:35 AM on Saturday 25 Oct 2014 (Local Time) from KMWK Reporting Station
Clear Clear  
Wind Chill: 62°   Ceiling: Unl
Heat Index: 62°   Visibility: 10mi
Dew Point: 41°   Wind: 0mph
Humidity: 45%   Direction: NA
Pressure: 30.06"   Gusts: NA
Location:  36.3461°N, 80.7011°W
Report Text: KMWK 251435Z AUTO 00000KT 10SM CLR 17/05 A3006 RMK AO2 T01680049
Loading
Personal Weather Stations






























Interactive Weather Map
Tropical Storm Tracking
New forecast layout! Learn more

10-Day Weather Forecast

Advertisements
Track Severe Weather on mobile